createdAt,value
2022-09-15T00:00:54.482Z,20.07
2022-09-15T00:02:26.274Z,20.03
2022-09-15T00:03:58.088Z,19.98
2022-09-15T00:05:29.643Z,19.98
2022-09-15T00:07:01.173Z,19.99
2022-09-15T00:08:32.795Z,20.02
2022-09-15T00:10:06.881Z,20.07
2022-09-15T00:11:39.724Z,20.12
2022-09-15T00:13:12.262Z,20.15
2022-09-15T00:14:44.665Z,20.19
2022-09-15T00:16:16.503Z,20.20
2022-09-15T00:17:52.710Z,20.21
2022-09-15T00:19:24.382Z,20.27
2022-09-15T00:20:57.840Z,20.29
2022-09-15T00:22:31.407Z,20.31
2022-09-15T00:24:05.152Z,20.37
2022-09-15T00:25:41.722Z,20.36
2022-09-15T00:27:13.381Z,20.32
2022-09-15T00:28:46.407Z,20.29
2022-09-15T00:30:19.029Z,20.29
2022-09-15T00:31:51.087Z,20.26
2022-09-15T00:33:24.597Z,20.26
2022-09-15T00:34:56.827Z,20.22
2022-09-15T00:36:28.448Z,20.24
2022-09-15T00:38:01.865Z,20.28
2022-09-15T00:39:34.545Z,20.31
2022-09-15T00:41:06.617Z,20.34
2022-09-15T00:42:39.386Z,20.35
2022-09-15T00:44:16.854Z,20.37
2022-09-15T00:45:48.638Z,20.36
2022-09-15T00:47:21.302Z,20.34
2022-09-15T00:48:54.736Z,20.27
2022-09-15T00:50:26.286Z,20.21
2022-09-15T00:52:02.146Z,20.17
2022-09-15T00:53:33.757Z,20.15
2022-09-15T00:55:13.589Z,20.14
2022-09-15T00:56:46.130Z,20.12
2022-09-15T00:58:41.711Z,20.10
2022-09-15T01:00:15.838Z,20.08
2022-09-15T01:01:48.335Z,20.09
2022-09-15T01:03:20.691Z,20.09
2022-09-15T01:04:57.979Z,20.07
2022-09-15T01:06:33.264Z,20.09
2022-09-15T01:08:09.292Z,20.11
2022-09-15T01:09:51.142Z,20.11
2022-09-15T01:11:22.997Z,20.12
2022-09-15T01:12:58.582Z,20.09
2022-09-15T01:14:30.318Z,20.08
2022-09-15T01:16:22.194Z,20.05
2022-09-15T01:18:03.191Z,20.01
2022-09-15T01:19:38.154Z,19.98
2022-09-15T01:21:15.689Z,19.99
2022-09-15T01:22:53.536Z,20.02
2022-09-15T01:24:29.906Z,20.00
2022-09-15T01:26:18.330Z,19.99
2022-09-15T01:28:01.936Z,19.99
2022-09-15T01:29:48.209Z,19.98
2022-09-15T01:31:23.134Z,19.99
2022-09-15T01:33:07.515Z,19.96
2022-09-15T01:34:43.169Z,19.89
2022-09-15T01:36:18.098Z,19.81
2022-09-15T01:37:55.418Z,19.79
2022-09-15T01:39:28.467Z,19.77
2022-09-15T01:41:03.036Z,19.76
2022-09-15T01:42:35.209Z,19.77
2022-09-15T01:44:07.831Z,19.76
2022-09-15T01:45:39.725Z,19.75
2022-09-15T01:47:12.918Z,19.78
2022-09-15T01:48:44.677Z,19.82
2022-09-15T01:50:19.408Z,19.79
2022-09-15T01:51:52.663Z,19.70
2022-09-15T01:53:24.545Z,19.61
2022-09-15T01:54:57.063Z,19.54
2022-09-15T01:56:28.655Z,19.47
2022-09-15T01:58:00.302Z,19.41
2022-09-15T01:59:32.198Z,19.38
2022-09-15T02:01:07.594Z,19.44
2022-09-15T02:02:44.285Z,19.42
2022-09-15T02:04:22.160Z,19.41
2022-09-15T02:06:03.028Z,19.39
2022-09-15T02:07:48.074Z,19.36
2022-09-15T02:09:30.865Z,19.35
2022-09-15T02:11:16.899Z,19.36
2022-09-15T02:12:50.918Z,19.37
2022-09-15T02:14:31.387Z,19.39
2022-09-15T02:16:05.930Z,19.43
2022-09-15T02:17:40.255Z,19.44
2022-09-15T02:19:33.615Z,19.43
2022-09-15T02:21:29.779Z,19.41
2022-09-15T02:23:08.283Z,19.36
2022-09-15T02:24:44.316Z,19.29
2022-09-15T02:26:17.671Z,19.26
2022-09-15T02:27:51.470Z,19.21
2022-09-15T02:29:24.424Z,19.18
2022-09-15T02:30:56.325Z,19.19
2022-09-15T02:32:29.903Z,19.22
2022-09-15T02:34:07.085Z,19.25
2022-09-15T02:35:38.687Z,19.26
2022-09-15T02:37:10.383Z,19.33
2022-09-15T02:38:45.747Z,19.41
2022-09-15T02:40:17.538Z,19.40
2022-09-15T02:41:49.281Z,19.40
2022-09-15T02:43:21.246Z,19.39
2022-09-15T02:44:53.095Z,19.37
2022-09-15T02:46:25.165Z,19.37
2022-09-15T02:47:58.812Z,19.39
2022-09-15T02:49:31.971Z,19.42
2022-09-15T02:51:04.524Z,19.45
2022-09-15T02:52:38.693Z,19.45
2022-09-15T02:54:13.515Z,19.44
2022-09-15T02:55:46.173Z,19.42
2022-09-15T02:57:17.784Z,19.40
2022-09-15T02:58:49.523Z,19.41
2022-09-15T03:00:21.074Z,19.44
2022-09-15T03:01:53.252Z,19.45
2022-09-15T03:03:25.436Z,19.43
2022-09-15T03:04:57.735Z,19.44
2022-09-15T03:06:34.552Z,19.46
2022-09-15T03:08:06.510Z,19.50
2022-09-15T03:09:38.319Z,19.49
2022-09-15T03:11:11.260Z,19.48
2022-09-15T03:12:44.260Z,19.50
2022-09-15T03:14:16.278Z,19.48
2022-09-15T03:15:47.949Z,19.40
2022-09-15T03:17:19.616Z,19.35
2022-09-15T03:18:52.553Z,19.28
2022-09-15T03:20:25.213Z,19.22
2022-09-15T03:21:57.017Z,19.12
2022-09-15T03:23:29.132Z,19.09
2022-09-15T03:25:01.682Z,19.09
2022-09-15T03:26:33.315Z,19.04
2022-09-15T03:28:04.988Z,19.02
2022-09-15T03:29:38.432Z,19.02
2022-09-15T03:31:11.059Z,19.02
2022-09-15T03:32:42.662Z,18.99
2022-09-15T03:34:15.010Z,19.05
2022-09-15T03:35:47.190Z,19.09
2022-09-15T03:37:20.574Z,19.12
2022-09-15T03:38:52.932Z,19.08
2022-09-15T03:40:26.255Z,19.05
2022-09-15T03:41:58.011Z,19.01
2022-09-15T03:43:33.769Z,18.97
2022-09-15T03:45:05.902Z,18.96
2022-09-15T03:46:37.879Z,18.98
2022-09-15T03:48:11.066Z,18.96
2022-09-15T03:49:43.180Z,18.96
2022-09-15T03:51:14.964Z,18.94
2022-09-15T03:52:46.623Z,18.92
2022-09-15T03:54:18.278Z,18.91
2022-09-15T03:55:50.975Z,18.91
2022-09-15T03:57:23.886Z,18.90
2022-09-15T03:58:56.050Z,18.89
2022-09-15T04:00:28.198Z,18.91
2022-09-15T04:02:00.721Z,18.92
2022-09-15T04:03:33.138Z,18.90
2022-09-15T04:05:05.791Z,18.88
2022-09-15T04:06:38.838Z,18.88
2022-09-15T04:08:12.287Z,18.88
2022-09-15T04:09:44.201Z,18.88
2022-09-15T04:11:16.156Z,18.87
2022-09-15T04:12:49.126Z,18.84
2022-09-15T04:14:21.264Z,18.79
2022-09-15T04:16:03.105Z,18.74
2022-09-15T04:17:34.898Z,18.73
2022-09-15T04:19:06.425Z,18.75
2022-09-15T04:20:40.587Z,18.78
2022-09-15T04:22:17.028Z,18.83
2022-09-15T04:23:49.489Z,18.85
2022-09-15T04:25:21.134Z,18.88
2022-09-15T04:26:54.742Z,18.96
2022-09-15T04:28:26.488Z,18.99
2022-09-15T04:29:59.423Z,19.02
2022-09-15T04:31:31.268Z,19.07
2022-09-15T04:33:02.888Z,19.10
2022-09-15T04:34:39.284Z,19.04
2022-09-15T04:36:16.761Z,19.01
2022-09-15T04:37:48.330Z,18.98
2022-09-15T04:39:19.921Z,18.95
2022-09-15T04:40:51.619Z,18.92
2022-09-15T04:42:24.244Z,18.86
2022-09-15T04:43:55.966Z,18.83
2022-09-15T04:45:28.974Z,18.83
2022-09-15T04:47:00.878Z,18.92
2022-09-15T04:48:32.871Z,18.99
2022-09-15T04:50:04.709Z,19.08
2022-09-15T04:51:36.371Z,19.16
2022-09-15T04:53:08.401Z,19.29
2022-09-15T04:54:40.123Z,19.27
2022-09-15T04:56:13.270Z,19.26
2022-09-15T04:57:45.033Z,19.23
2022-09-15T04:59:18.452Z,19.21
2022-09-15T05:00:50.113Z,19.22
2022-09-15T05:02:21.877Z,19.19
2022-09-15T05:03:53.798Z,19.25
2022-09-15T05:05:25.885Z,19.33
2022-09-15T05:06:57.551Z,19.36
2022-09-15T05:08:29.489Z,19.42
2022-09-15T05:10:01.114Z,19.48
2022-09-15T05:11:33.562Z,19.58
2022-09-15T05:13:05.329Z,19.68
2022-09-15T05:14:36.929Z,19.80
2022-09-15T05:16:15.406Z,19.94
2022-09-15T05:17:47.968Z,20.07
2022-09-15T05:19:19.950Z,20.12
2022-09-15T05:20:57.804Z,20.20
2022-09-15T05:22:29.434Z,20.28
2022-09-15T05:24:01.641Z,20.39
2022-09-15T05:25:33.473Z,20.54
2022-09-15T05:27:05.688Z,20.67
2022-09-15T05:28:37.753Z,20.78
2022-09-15T05:30:35.838Z,20.94
2022-09-15T05:32:01.642Z,21.14
2022-09-15T05:33:34.124Z,21.27
2022-09-15T05:35:06.887Z,21.41
2022-09-15T05:36:38.710Z,21.54
2022-09-15T05:38:10.254Z,21.67
2022-09-15T05:39:41.973Z,21.82
2022-09-15T05:41:14.246Z,21.91
2022-09-15T05:42:45.839Z,22.00
2022-09-15T05:44:17.559Z,22.09
2022-09-15T05:45:54.937Z,22.19
2022-09-15T05:47:27.019Z,22.29
2022-09-15T05:48:58.706Z,22.39
2022-09-15T05:50:30.953Z,22.50
2022-09-15T05:52:02.770Z,22.62
2022-09-15T05:53:35.117Z,22.77
2022-09-15T05:55:06.766Z,22.90
2022-09-15T05:56:38.560Z,23.02
2022-09-15T05:58:10.390Z,23.05
2022-09-15T05:59:43.999Z,23.14
2022-09-15T06:01:16.902Z,23.23
2022-09-15T06:02:48.476Z,23.31
2022-09-15T06:04:20.102Z,23.43
2022-09-15T06:05:58.788Z,23.58
2022-09-15T06:07:30.747Z,23.72
2022-09-15T06:09:02.800Z,23.85
2022-09-15T06:10:34.727Z,23.93
2022-09-15T06:12:06.747Z,23.96
2022-09-15T06:13:41.185Z,24.00
2022-09-15T06:15:12.830Z,24.05
2022-09-15T06:16:44.358Z,24.10
2022-09-15T06:18:16.491Z,24.16
2022-09-15T06:19:48.621Z,24.12
2022-09-15T06:21:24.034Z,24.12
2022-09-15T06:22:56.634Z,24.11
2022-09-15T06:24:28.221Z,24.13
2022-09-15T06:26:06.435Z,24.15
2022-09-15T06:27:39.154Z,24.20
2022-09-15T06:29:15.236Z,24.28
2022-09-15T06:30:49.565Z,24.30
2022-09-15T06:32:21.338Z,24.44
2022-09-15T06:33:54.857Z,24.59
2022-09-15T06:35:26.901Z,24.75
2022-09-15T06:36:59.335Z,24.91
2022-09-15T06:38:31.643Z,25.02
2022-09-15T06:40:04.588Z,25.09
2022-09-15T06:42:01.856Z,25.17
2022-09-15T06:43:30.708Z,25.39
2022-09-15T06:45:04.741Z,25.49
2022-09-15T06:46:36.360Z,25.58
2022-09-15T06:48:24.105Z,25.59
2022-09-15T06:49:56.835Z,25.62
2022-09-15T06:51:31.529Z,25.61
2022-09-15T06:53:03.055Z,25.64
2022-09-15T06:54:34.850Z,25.60
2022-09-15T06:56:07.426Z,25.62
2022-09-15T06:57:39.172Z,25.57
2022-09-15T06:59:14.326Z,25.48
2022-09-15T07:00:48.996Z,25.48
2022-09-15T07:02:27.813Z,25.52
2022-09-15T07:04:02.703Z,25.53
2022-09-15T07:05:35.071Z,25.63
2022-09-15T07:07:07.179Z,25.68
2022-09-15T07:08:39.272Z,25.75
2022-09-15T07:10:11.102Z,25.84
2022-09-15T07:11:43.281Z,25.93
2022-09-15T07:13:15.069Z,26.09
2022-09-15T07:14:47.999Z,26.27
2022-09-15T07:16:20.413Z,26.38
2022-09-15T07:17:51.980Z,26.33
2022-09-15T07:19:23.657Z,26.28
2022-09-15T07:21:03.298Z,26.33
2022-09-15T07:22:35.250Z,26.32
2022-09-15T07:24:07.981Z,26.39
2022-09-15T07:25:45.364Z,26.57
2022-09-15T07:27:17.008Z,26.70
2022-09-15T07:28:50.182Z,26.74
2022-09-15T07:30:21.764Z,26.84
2022-09-15T07:31:53.400Z,26.90
2022-09-15T07:33:25.663Z,26.90
2022-09-15T07:34:58.432Z,26.98
2022-09-15T07:36:31.128Z,27.11
2022-09-15T07:38:02.826Z,27.15
2022-09-15T07:39:34.337Z,27.24
2022-09-15T07:41:06.507Z,27.34
2022-09-15T07:42:38.725Z,27.20
2022-09-15T07:44:12.084Z,27.03
2022-09-15T07:45:43.689Z,26.93
2022-09-15T07:47:16.959Z,26.91
2022-09-15T07:48:51.271Z,26.91
2022-09-15T07:50:24.935Z,27.00
2022-09-15T07:51:56.586Z,27.09
2022-09-15T07:53:29.304Z,27.11
2022-09-15T07:55:00.942Z,27.01
2022-09-15T07:56:32.655Z,26.97
2022-09-15T07:58:04.682Z,26.98
2022-09-15T07:59:40.586Z,26.96
2022-09-15T08:01:14.844Z,26.97
2022-09-15T08:02:46.518Z,27.01
2022-09-15T08:04:18.058Z,27.14
2022-09-15T08:05:50.107Z,27.19
2022-09-15T08:07:21.767Z,27.27
2022-09-15T08:08:59.236Z,27.41
2022-09-15T08:10:32.161Z,27.52
2022-09-15T08:12:04.091Z,27.57
2022-09-15T08:13:35.672Z,27.68
2022-09-15T08:15:07.438Z,27.78
2022-09-15T08:16:39.108Z,27.88
2022-09-15T08:18:11.067Z,28.06
2022-09-15T08:19:42.748Z,28.22
2022-09-15T08:21:15.266Z,28.35
2022-09-15T08:22:48.153Z,28.42
2022-09-15T08:24:19.751Z,28.41
2022-09-15T08:25:51.805Z,28.38
2022-09-15T08:27:23.388Z,28.34
2022-09-15T08:28:54.942Z,28.43
2022-09-15T08:30:26.914Z,28.52
2022-09-15T08:31:58.859Z,28.54
2022-09-15T08:33:31.065Z,28.55
2022-09-15T08:35:02.661Z,28.60
2022-09-15T08:36:34.330Z,28.63
2022-09-15T08:38:05.837Z,28.75
2022-09-15T08:39:37.348Z,28.73
2022-09-15T08:41:14.293Z,28.78
2022-09-15T08:42:46.301Z,28.89
2022-09-15T08:44:29.527Z,28.89
2022-09-15T08:46:03.733Z,28.93
2022-09-15T08:47:39.714Z,29.10
2022-09-15T08:49:30.628Z,29.20
2022-09-15T08:51:11.826Z,29.30
2022-09-15T08:52:50.843Z,29.35
2022-09-15T08:54:24.442Z,29.46
2022-09-15T08:55:56.666Z,29.41
2022-09-15T08:57:28.299Z,29.52
2022-09-15T08:58:59.832Z,29.67
2022-09-15T09:00:31.921Z,29.74
2022-09-15T09:02:03.524Z,29.82
2022-09-15T09:03:54.492Z,29.99
2022-09-15T09:05:41.722Z,30.16
2022-09-15T09:07:39.685Z,30.32
2022-09-15T09:09:23.377Z,30.42
2022-09-15T09:10:56.534Z,30.51
2022-09-15T09:12:46.658Z,30.52
2022-09-15T09:14:21.332Z,30.60
2022-09-15T09:15:52.873Z,30.65
2022-09-15T09:17:57.065Z,30.70
2022-09-15T09:19:37.331Z,30.80
2022-09-15T09:21:21.153Z,30.82
2022-09-15T09:22:54.062Z,30.73
2022-09-15T09:24:28.657Z,30.65
2022-09-15T09:26:02.028Z,30.54
2022-09-15T09:27:36.998Z,30.66
2022-09-15T09:29:20.867Z,30.69
2022-09-15T09:30:52.885Z,30.66
2022-09-15T09:32:31.439Z,30.62
2022-09-15T09:34:11.893Z,30.69
2022-09-15T09:35:47.367Z,30.75
2022-09-15T09:37:19.726Z,30.83
2022-09-15T09:38:51.341Z,30.90
2022-09-15T09:40:23.187Z,30.95
2022-09-15T09:41:54.941Z,30.96
2022-09-15T09:43:28.326Z,31.03
2022-09-15T09:44:59.961Z,31.19
2022-09-15T09:46:31.746Z,31.23
2022-09-15T09:48:06.527Z,31.17
2022-09-15T09:49:38.923Z,31.10
2022-09-15T09:51:29.082Z,31.16
2022-09-15T09:53:00.751Z,31.20
2022-09-15T09:54:33.165Z,31.25
2022-09-15T09:56:36.938Z,31.35
2022-09-15T09:58:22.084Z,31.50
2022-09-15T09:59:57.308Z,31.50
2022-09-15T10:01:29.146Z,31.50
2022-09-15T10:03:09.807Z,31.46
2022-09-15T10:04:42.289Z,31.45
2022-09-15T10:06:20.659Z,31.47
2022-09-15T10:07:52.268Z,31.40
2022-09-15T10:09:28.830Z,31.35
2022-09-15T10:11:07.856Z,31.46
2022-09-15T10:12:40.958Z,31.56
2022-09-15T10:14:24.887Z,31.71
2022-09-15T10:16:00.788Z,31.70
2022-09-15T10:17:41.329Z,31.67
2022-09-15T10:19:13.896Z,31.83
2022-09-15T10:20:53.665Z,31.92
2022-09-15T10:22:28.507Z,31.89
2022-09-15T10:24:09.917Z,31.75
2022-09-15T10:25:59.206Z,31.72
2022-09-15T10:27:32.919Z,31.67
2022-09-15T10:29:10.655Z,31.59
2022-09-15T10:31:05.467Z,31.58
2022-09-15T10:32:37.120Z,31.72
2022-09-15T10:34:30.744Z,31.89
2022-09-15T10:36:03.860Z,31.96
2022-09-15T10:37:44.685Z,32.13
2022-09-15T10:39:22.302Z,32.16
2022-09-15T10:40:56.577Z,32.26
2022-09-15T10:42:31.754Z,32.42
2022-09-15T10:44:03.380Z,32.59
2022-09-15T10:45:43.952Z,32.57
2022-09-15T10:47:21.569Z,32.59
2022-09-15T10:48:59.358Z,32.60
2022-09-15T10:50:51.644Z,32.63
2022-09-15T10:52:41.217Z,32.54
2022-09-15T10:54:18.109Z,32.67
2022-09-15T10:56:07.862Z,32.73
2022-09-15T10:57:47.457Z,32.91
2022-09-15T10:59:22.318Z,33.14
2022-09-15T11:00:58.331Z,33.18
2022-09-15T11:02:44.126Z,33.37
2022-09-15T11:04:18.697Z,33.29
2022-09-15T11:06:06.224Z,33.24
2022-09-15T11:07:58.433Z,33.28
2022-09-15T11:09:50.399Z,33.23
2022-09-15T11:11:31.112Z,32.96
2022-09-15T11:13:03.667Z,32.76
2022-09-15T11:14:44.351Z,32.60
2022-09-15T11:16:35.327Z,32.50
2022-09-15T11:18:10.226Z,32.46
2022-09-15T11:20:00.143Z,32.42
2022-09-15T11:21:35.529Z,32.26
2022-09-15T11:23:12.132Z,32.06
2022-09-15T11:25:02.809Z,32.02
2022-09-15T11:26:44.795Z,32.00
2022-09-15T11:28:25.989Z,32.02
2022-09-15T11:30:17.980Z,32.00
2022-09-15T11:31:51.116Z,32.04
2022-09-15T11:33:28.560Z,31.97
2022-09-15T11:35:06.078Z,31.96
2022-09-15T11:36:55.934Z,31.93
2022-09-15T11:38:31.041Z,31.88
2022-09-15T11:40:05.139Z,31.80
2022-09-15T11:41:38.577Z,31.83
2022-09-15T11:43:46.361Z,31.97
2022-09-15T11:45:20.312Z,31.99
2022-09-15T11:47:10.522Z,32.03
2022-09-15T11:48:45.863Z,32.02
2022-09-15T11:50:19.492Z,32.05
2022-09-15T11:51:53.621Z,32.08
2022-09-15T11:53:46.373Z,32.23
2022-09-15T11:55:38.337Z,32.48
2022-09-15T11:57:17.083Z,32.54
2022-09-15T11:58:53.143Z,32.53
2022-09-15T12:00:25.166Z,32.62
2022-09-15T12:02:00.039Z,32.68
2022-09-15T12:03:51.218Z,32.83
2022-09-15T12:05:29.235Z,32.89
2022-09-15T12:07:13.660Z,32.95
2022-09-15T12:09:05.274Z,33.09
2022-09-15T12:10:43.840Z,33.13
2022-09-15T12:12:16.557Z,32.99
2022-09-15T12:13:48.331Z,32.88
2022-09-15T12:15:20.442Z,32.79
2022-09-15T12:16:52.002Z,32.73
2022-09-15T12:18:38.961Z,32.68
2022-09-15T12:20:18.112Z,32.68
2022-09-15T12:21:59.651Z,32.70
2022-09-15T12:23:36.244Z,32.77
2022-09-15T12:25:15.424Z,32.89
2022-09-15T12:26:47.605Z,32.93
2022-09-15T12:28:22.073Z,33.02
2022-09-15T12:29:54.375Z,33.19
2022-09-15T12:31:27.400Z,33.34
2022-09-15T12:32:59.345Z,33.37
2022-09-15T12:34:34.209Z,33.49
2022-09-15T12:36:24.304Z,33.59
2022-09-15T12:37:55.886Z,33.55
2022-09-15T12:39:32.853Z,33.54
2022-09-15T12:41:05.235Z,33.54
2022-09-15T12:42:37.324Z,33.57
2022-09-15T12:44:24.049Z,33.68
2022-09-15T12:45:59.155Z,33.85
2022-09-15T12:47:32.719Z,33.97
2022-09-15T12:49:04.564Z,33.89
2022-09-15T12:50:36.872Z,33.87
2022-09-15T12:52:08.869Z,33.97
2022-09-15T12:54:00.703Z,33.99
2022-09-15T12:55:35.813Z,34.01
2022-09-15T12:57:08.248Z,33.92
2022-09-15T12:58:46.733Z,33.95
2022-09-15T13:00:21.077Z,34.06
2022-09-15T13:01:54.031Z,33.94
2022-09-15T13:03:26.897Z,33.90
2022-09-15T13:04:58.557Z,33.91
2022-09-15T13:06:30.614Z,34.05
2022-09-15T13:08:02.149Z,34.10
2022-09-15T13:09:34.053Z,34.20
2022-09-15T13:11:08.487Z,34.12
2022-09-15T13:12:42.113Z,34.02
2022-09-15T13:14:25.973Z,33.85
2022-09-15T13:15:57.958Z,33.71
2022-09-15T13:17:29.986Z,33.58
2022-09-15T13:19:09.511Z,33.54
2022-09-15T13:20:41.649Z,33.60
2022-09-15T13:22:21.130Z,33.63
2022-09-15T13:23:53.003Z,33.73
2022-09-15T13:25:26.649Z,33.70
2022-09-15T13:26:58.674Z,33.67
2022-09-15T13:28:30.317Z,33.62
2022-09-15T13:30:14.163Z,33.54
2022-09-15T13:31:49.889Z,33.60
2022-09-15T13:35:26.525Z,33.45
2022-09-15T13:39:05.965Z,33.44
2022-09-15T13:40:54.665Z,33.46
2022-09-15T13:42:52.760Z,33.36
2022-09-15T13:44:30.148Z,33.24
2022-09-15T13:46:13.945Z,33.22
2022-09-15T13:47:58.116Z,33.29
2022-09-15T13:49:49.481Z,33.15
2022-09-15T13:51:25.604Z,33.07
2022-09-15T13:53:06.941Z,33.03
2022-09-15T13:54:38.540Z,33.10
2022-09-15T13:56:11.939Z,33.12
2022-09-15T13:59:37.119Z,33.05
2022-09-15T14:01:08.745Z,33.02
2022-09-15T14:02:42.954Z,33.00
2022-09-15T14:04:16.658Z,33.02
2022-09-15T14:05:48.345Z,32.99
2022-09-15T14:07:22.088Z,32.97
2022-09-15T14:08:54.959Z,32.95
2022-09-15T14:10:27.518Z,32.93
2022-09-15T14:11:59.978Z,32.86
2022-09-15T14:13:32.095Z,32.84
2022-09-15T14:15:06.556Z,32.81
2022-09-15T14:16:39.165Z,32.85
2022-09-15T14:18:18.874Z,32.89
2022-09-15T14:19:51.903Z,32.78
2022-09-15T14:21:24.438Z,32.76
2022-09-15T14:22:57.195Z,32.67
2022-09-15T14:24:30.207Z,32.55
2022-09-15T14:26:01.943Z,32.37
2022-09-15T14:27:33.986Z,32.27
2022-09-15T14:29:06.069Z,32.17
2022-09-15T14:30:38.499Z,32.07
2022-09-15T14:32:12.615Z,32.05
2022-09-15T14:33:44.259Z,32.00
2022-09-15T14:35:19.748Z,31.97
2022-09-15T14:37:15.615Z,31.91
2022-09-15T14:38:47.294Z,31.83
2022-09-15T14:40:23.584Z,31.77
2022-09-15T14:41:55.309Z,31.75
2022-09-15T14:43:35.816Z,31.78
2022-09-15T14:47:02.187Z,31.98
2022-09-15T14:48:34.378Z,32.08
2022-09-15T14:50:12.254Z,32.23
2022-09-15T14:51:44.320Z,32.35
2022-09-15T14:53:17.019Z,32.41
2022-09-15T14:54:49.168Z,32.42
2022-09-15T14:56:24.926Z,32.43
2022-09-15T14:58:14.357Z,32.40
2022-09-15T14:59:47.488Z,32.39
2022-09-15T15:01:20.978Z,32.40
2022-09-15T15:02:55.962Z,32.36
2022-09-15T15:04:41.078Z,32.32
2022-09-15T15:06:28.960Z,32.29
2022-09-15T15:08:02.159Z,32.22
2022-09-15T15:09:52.954Z,32.16
2022-09-15T15:11:25.154Z,32.03
2022-09-15T15:12:57.715Z,31.94
2022-09-15T15:14:29.483Z,31.83
2022-09-15T15:16:02.003Z,31.69
2022-09-15T15:17:37.942Z,31.58
2022-09-15T15:19:32.939Z,31.53
2022-09-15T15:21:05.248Z,31.43
2022-09-15T15:22:37.202Z,31.31
2022-09-15T15:24:15.839Z,31.25
2022-09-15T15:25:48.447Z,31.17
2022-09-15T15:27:26.962Z,31.18
2022-09-15T15:28:59.359Z,31.20
2022-09-15T15:30:31.465Z,31.26
2022-09-15T15:32:09.136Z,31.32
2022-09-15T15:34:06.188Z,31.39
2022-09-15T15:35:37.955Z,31.45
2022-09-15T15:37:18.935Z,31.44
2022-09-15T15:38:57.488Z,31.50
2022-09-15T15:40:29.334Z,31.51
2022-09-15T15:42:04.807Z,31.52
2022-09-15T15:43:36.649Z,31.57
2022-09-15T15:45:20.295Z,31.62
2022-09-15T15:46:54.647Z,31.62
2022-09-15T15:48:26.627Z,31.62
2022-09-15T15:50:19.087Z,31.65
2022-09-15T15:51:50.723Z,31.65
2022-09-15T15:53:22.815Z,31.62
2022-09-15T15:54:54.475Z,31.65
2022-09-15T15:56:26.372Z,31.62
2022-09-15T15:57:58.448Z,31.64
2022-09-15T15:59:30.238Z,31.61
2022-09-15T16:01:01.852Z,31.52
2022-09-15T16:02:33.831Z,31.40
2022-09-15T16:04:08.279Z,31.34
2022-09-15T16:05:40.358Z,31.21
2022-09-15T16:07:12.721Z,31.11
2022-09-15T16:08:44.568Z,31.01
2022-09-15T16:10:17.227Z,30.95
2022-09-15T16:11:49.029Z,30.90
2022-09-15T16:13:20.895Z,30.92
2022-09-15T16:14:52.610Z,30.96
2022-09-15T16:16:25.431Z,30.96
2022-09-15T16:17:57.169Z,30.95
2022-09-15T16:19:29.142Z,30.93
2022-09-15T16:21:02.404Z,30.87
2022-09-15T16:22:34.313Z,30.82
2022-09-15T16:24:06.281Z,30.74
2022-09-15T16:25:56.273Z,30.67
2022-09-15T16:27:28.948Z,30.62
2022-09-15T16:29:01.182Z,30.54
2022-09-15T16:30:33.111Z,30.50
2022-09-15T16:32:04.837Z,30.40
2022-09-15T16:33:38.266Z,30.36
2022-09-15T16:35:25.046Z,30.34
2022-09-15T16:36:57.364Z,30.33
2022-09-15T16:38:29.096Z,30.29
2022-09-15T16:40:01.215Z,30.22
2022-09-15T16:41:38.471Z,30.20
2022-09-15T16:43:12.639Z,30.16
2022-09-15T16:44:45.377Z,30.13
2022-09-15T16:46:17.538Z,30.09
2022-09-15T16:47:49.285Z,30.03
2022-09-15T16:49:20.848Z,29.97
2022-09-15T16:52:44.385Z,29.87
2022-09-15T16:54:16.710Z,29.84
2022-09-15T16:55:49.380Z,29.82
2022-09-15T16:57:20.904Z,29.77
2022-09-15T16:58:58.851Z,29.72
2022-09-15T17:00:32.698Z,29.61
2022-09-15T17:02:05.879Z,29.51
2022-09-15T17:03:37.689Z,29.46
2022-09-15T17:05:14.170Z,29.43
2022-09-15T17:06:46.140Z,29.38
2022-09-15T17:08:18.652Z,29.32
2022-09-15T17:09:51.276Z,29.27
2022-09-15T17:11:25.360Z,29.21
2022-09-15T17:12:57.162Z,29.18
2022-09-15T17:14:28.768Z,29.15
2022-09-15T17:16:00.586Z,29.12
2022-09-15T17:17:32.484Z,29.07
2022-09-15T17:19:04.742Z,29.04
2022-09-15T17:20:39.358Z,29.00
2022-09-15T17:22:11.677Z,28.96
2022-09-15T17:23:44.543Z,28.93
2022-09-15T17:25:18.662Z,28.88
2022-09-15T17:26:50.543Z,28.83
2022-09-15T17:28:22.887Z,28.80
2022-09-15T17:29:55.028Z,28.78
2022-09-15T17:31:28.044Z,28.75
2022-09-15T17:33:03.578Z,28.71
2022-09-15T17:34:35.160Z,28.66
2022-09-15T17:36:07.608Z,28.58
2022-09-15T17:37:39.259Z,28.48
2022-09-15T17:39:11.199Z,28.40
2022-09-15T17:40:43.044Z,28.34
2022-09-15T17:42:15.650Z,28.30
2022-09-15T17:43:47.304Z,28.27
2022-09-15T17:45:20.464Z,28.26
2022-09-15T17:46:52.454Z,28.23
2022-09-15T17:48:24.517Z,28.14
2022-09-15T17:49:56.118Z,28.05
2022-09-15T17:51:28.342Z,27.98
2022-09-15T17:53:00.031Z,27.89
2022-09-15T17:54:31.840Z,27.82
2022-09-15T17:56:03.958Z,27.76
2022-09-15T17:57:35.662Z,27.70
2022-09-15T17:59:07.274Z,27.67
2022-09-15T18:00:39.581Z,27.58
2022-09-15T18:02:15.493Z,27.46
2022-09-15T18:03:47.131Z,27.38
2022-09-15T18:05:18.632Z,27.30
2022-09-15T18:06:50.430Z,27.25
2022-09-15T18:08:21.918Z,27.20
2022-09-15T18:09:53.807Z,27.17
2022-09-15T18:11:27.271Z,27.14
2022-09-15T18:12:58.974Z,27.16
2022-09-15T18:14:30.784Z,27.14
2022-09-15T18:16:06.330Z,27.16
2022-09-15T18:17:38.657Z,27.09
2022-09-15T18:19:11.138Z,27.06
2022-09-15T18:20:43.077Z,27.03
2022-09-15T18:22:14.912Z,27.02
2022-09-15T18:23:46.585Z,27.02
2022-09-15T18:25:24.689Z,26.99
2022-09-15T18:26:56.523Z,26.97
2022-09-15T18:28:28.079Z,26.90
2022-09-15T18:29:59.946Z,26.81
2022-09-15T18:31:31.620Z,26.80
2022-09-15T18:33:03.361Z,26.72
2022-09-15T18:34:35.194Z,26.69
2022-09-15T18:36:07.162Z,26.64
2022-09-15T18:37:38.801Z,26.55
2022-09-15T18:39:12.052Z,26.48
2022-09-15T18:40:47.002Z,26.45
2022-09-15T18:42:19.005Z,26.49
2022-09-15T18:43:50.714Z,26.52
2022-09-15T18:45:22.503Z,26.53
2022-09-15T18:46:54.076Z,26.55
2022-09-15T18:48:26.321Z,26.54
2022-09-15T18:49:58.792Z,26.50
2022-09-15T18:51:50.562Z,26.46
2022-09-15T18:53:22.060Z,26.44
2022-09-15T18:54:54.093Z,26.44
2022-09-15T18:56:26.413Z,26.43
2022-09-15T18:58:00.949Z,26.40
2022-09-15T18:59:32.907Z,26.43
2022-09-15T19:01:04.984Z,26.39
2022-09-15T19:02:36.870Z,26.36
2022-09-15T19:04:08.483Z,26.38
2022-09-15T19:05:40.103Z,26.42
2022-09-15T19:07:11.795Z,26.43
2022-09-15T19:08:43.770Z,26.39
2022-09-15T19:10:17.632Z,26.37
2022-09-15T19:11:49.351Z,26.38
2022-09-15T19:13:21.005Z,26.34
2022-09-15T19:14:52.778Z,26.27
2022-09-15T19:16:34.624Z,26.26
2022-09-15T19:18:16.008Z,26.23
2022-09-15T19:19:47.768Z,26.11
2022-09-15T19:21:22.834Z,25.98
2022-09-15T19:22:57.466Z,25.94
2022-09-15T19:24:33.698Z,25.83
2022-09-15T19:26:06.302Z,25.79
2022-09-15T19:27:38.811Z,25.74
2022-09-15T19:29:11.364Z,25.69
2022-09-15T19:30:42.923Z,25.67
2022-09-15T19:32:14.929Z,25.66
2022-09-15T19:33:46.590Z,25.67
2022-09-15T19:35:19.225Z,25.65
2022-09-15T19:36:50.831Z,25.59
2022-09-15T19:38:22.430Z,25.55
2022-09-15T19:39:54.890Z,25.52
2022-09-15T19:41:26.516Z,25.51
2022-09-15T19:42:58.538Z,25.53
2022-09-15T19:44:30.130Z,25.57
2022-09-15T19:46:02.131Z,25.62
2022-09-15T19:47:34.059Z,25.58
2022-09-15T19:49:05.912Z,25.52
2022-09-15T19:50:38.274Z,25.46
2022-09-15T19:52:10.713Z,25.45
2022-09-15T19:53:42.320Z,25.46
2022-09-15T19:55:14.082Z,25.44
2022-09-15T19:56:45.819Z,25.42
2022-09-15T19:58:17.748Z,25.41
2022-09-15T19:59:49.489Z,25.38
2022-09-15T20:01:21.768Z,25.37
2022-09-15T20:02:53.357Z,25.39
2022-09-15T20:04:24.964Z,25.43
2022-09-15T20:05:56.711Z,25.42
2022-09-15T20:07:28.222Z,25.40
2022-09-15T20:08:59.876Z,25.37
2022-09-15T20:10:31.528Z,25.36
2022-09-15T20:12:03.745Z,25.37
2022-09-15T20:13:39.585Z,25.34
2022-09-15T20:15:11.624Z,25.36
2022-09-15T20:16:43.680Z,25.43
2022-09-15T20:18:16.596Z,25.47
2022-09-15T20:19:48.860Z,25.49
2022-09-15T20:21:39.102Z,25.50
2022-09-15T20:23:15.297Z,25.53
2022-09-15T20:24:46.989Z,25.57
2022-09-15T20:26:18.638Z,25.60
2022-09-15T20:27:52.685Z,25.62
2022-09-15T20:29:24.423Z,25.60
2022-09-15T20:31:01.941Z,25.55
2022-09-15T20:32:34.626Z,25.48